sensor_id;sensor_type;location;lat;lon;timestamp;pressure;altitude;pressure_sealevel;temperature;humidity
73594;BME280;64760;53.404;23.498;2024-02-14T00:00:10;99835.50;;;5.88;72.44
73594;BME280;64760;53.404;23.498;2024-02-14T00:03:02;99839.66;;;6.07;71.72
73594;BME280;64760;53.404;23.498;2024-02-14T00:05:32;99847.69;;;5.49;74.02
73594;BME280;64760;53.404;23.498;2024-02-14T00:07:59;99853.56;;;5.77;73.40
73594;BME280;64760;53.404;23.498;2024-02-14T00:10:26;99850.09;;;5.84;73.03
73594;BME280;64760;53.404;23.498;2024-02-14T00:12:52;99858.13;;;6.57;70.57
73594;BME280;64760;53.404;23.498;2024-02-14T00:15:19;99857.31;;;6.32;70.82
73594;BME280;64760;53.404;23.498;2024-02-14T00:17:46;99859.47;;;6.21;71.44
73594;BME280;64760;53.404;23.498;2024-02-14T00:20:12;99866.28;;;6.15;71.54
73594;BME280;64760;53.404;23.498;2024-02-14T00:22:48;99862.78;;;6.14;72.37
73594;BME280;64760;53.404;23.498;2024-02-14T00:25:15;99873.59;;;6.61;69.85
73594;BME280;64760;53.404;23.498;2024-02-14T00:27:42;99876.09;;;6.63;69.28
73594;BME280;64760;53.404;23.498;2024-02-14T00:30:09;99873.59;;;6.78;69.02
73594;BME280;64760;53.404;23.498;2024-02-14T00:32:56;99883.25;;;6.87;68.15
73594;BME280;64760;53.404;23.498;2024-02-14T00:35:22;99875.72;;;6.90;67.56
73594;BME280;64760;53.404;23.498;2024-02-14T00:37:49;99883.84;;;7.05;67.72
73594;BME280;64760;53.404;23.498;2024-02-14T00:40:17;99885.59;;;7.37;66.60
73594;BME280;64760;53.404;23.498;2024-02-14T00:42:44;99883.72;;;6.98;67.94
73594;BME280;64760;53.404;23.498;2024-02-14T00:45:10;99885.00;;;7.19;67.39
73594;BME280;64760;53.404;23.498;2024-02-14T00:47:37;99881.06;;;6.90;68.53
73594;BME280;64760;53.404;23.498;2024-02-14T00:50:04;99887.34;;;7.14;67.39
73594;BME280;64760;53.404;23.498;2024-02-14T00:52:35;99885.19;;;7.01;67.48
73594;BME280;64760;53.404;23.498;2024-02-14T00:55:01;99887.38;;;6.97;68.15
73594;BME280;64760;53.404;23.498;2024-02-14T00:57:32;99892.06;;;6.95;68.65
73594;BME280;64760;53.404;23.498;2024-02-14T00:59:58;99888.03;;;7.07;67.12
73594;BME280;64760;53.404;23.498;2024-02-14T01:02:26;99895.19;;;7.15;66.61
73594;BME280;64760;53.404;23.498;2024-02-14T01:04:52;99899.66;;;7.15;66.65
73594;BME280;64760;53.404;23.498;2024-02-14T01:07:19;99897.97;;;7.69;65.07
73594;BME280;64760;53.404;23.498;2024-02-14T01:09:45;99898.19;;;7.59;64.79
73594;BME280;64760;53.404;23.498;2024-02-14T01:12:11;99900.13;;;7.73;64.50
73594;BME280;64760;53.404;23.498;2024-02-14T01:14:40;99898.16;;;7.67;65.06
73594;BME280;64760;53.404;23.498;2024-02-14T01:17:08;99893.22;;;7.56;65.67
73594;BME280;64760;53.404;23.498;2024-02-14T01:19:34;99891.91;;;7.52;65.29
73594;BME280;64760;53.404;23.498;2024-02-14T01:22:01;99893.03;;;7.88;64.44
73594;BME280;64760;53.404;23.498;2024-02-14T01:24:28;99885.22;;;7.87;63.99
73594;BME280;64760;53.404;23.498;2024-02-14T01:26:56;99894.34;;;7.92;63.61
73594;BME280;64760;53.404;23.498;2024-02-14T01:29:22;99888.78;;;8.02;63.89
73594;BME280;64760;53.404;23.498;2024-02-14T01:31:49;99891.47;;;7.71;64.28
73594;BME280;64760;53.404;23.498;2024-02-14T01:34:16;99894.97;;;8.02;64.00
73594;BME280;64760;53.404;23.498;2024-02-14T01:36:43;99896.81;;;7.71;64.30
73594;BME280;64760;53.404;23.498;2024-02-14T01:39:09;99891.06;;;7.82;64.11
73594;BME280;64760;53.404;23.498;2024-02-14T01:41:37;99898.41;;;7.80;63.67
73594;BME280;64760;53.404;23.498;2024-02-14T01:44:05;99902.84;;;7.96;64.09
73594;BME280;64760;53.404;23.498;2024-02-14T01:46:33;99906.81;;;7.69;63.82
73594;BME280;64760;53.404;23.498;2024-02-14T01:48:59;99903.19;;;7.93;63.54
73594;BME280;64760;53.404;23.498;2024-02-14T01:51:26;99913.59;;;7.80;63.61
73594;BME280;64760;53.404;23.498;2024-02-14T01:53:53;99917.22;;;7.87;63.52
73594;BME280;64760;53.404;23.498;2024-02-14T01:56:21;99911.34;;;8.22;62.63
73594;BME280;64760;53.404;23.498;2024-02-14T01:58:47;99919.16;;;8.01;62.91
73594;BME280;64760;53.404;23.498;2024-02-14T02:01:15;99920.41;;;7.82;63.35
73594;BME280;64760;53.404;23.498;2024-02-14T02:03:43;99925.38;;;7.93;63.55
73594;BME280;64760;53.404;23.498;2024-02-14T02:06:09;99915.16;;;7.97;63.21
73594;BME280;64760;53.404;23.498;2024-02-14T02:08:36;99913.28;;;8.28;62.35
73594;BME280;64760;53.404;23.498;2024-02-14T02:11:03;99918.94;;;8.11;62.64
73594;BME280;64760;53.404;23.498;2024-02-14T02:13:50;99911.63;;;8.35;62.11
73594;BME280;64760;53.404;23.498;2024-02-14T02:16:36;99923.38;;;7.95;63.14
73594;BME280;64760;53.404;23.498;2024-02-14T02:19:30;99925.16;;;8.03;63.18
73594;BME280;64760;53.404;23.498;2024-02-14T02:22:17;99935.53;;;7.98;63.37
73594;BME280;64760;53.404;23.498;2024-02-14T02:25:09;99942.75;;;7.81;63.95
73594;BME280;64760;53.404;23.498;2024-02-14T02:27:42;99938.50;;;8.03;63.81
73594;BME280;64760;53.404;23.498;2024-02-14T02:30:29;99933.06;;;8.19;62.71
73594;BME280;64760;53.404;23.498;2024-02-14T02:32:56;99947.25;;;8.20;63.32
73594;BME280;64760;53.404;23.498;2024-02-14T02:35:22;99952.59;;;8.20;62.77
73594;BME280;64760;53.404;23.498;2024-02-14T02:38:11;99946.22;;;8.21;62.75
73594;BME280;64760;53.404;23.498;2024-02-14T02:40:57;99961.47;;;8.12;62.66
73594;BME280;64760;53.404;23.498;2024-02-14T02:43:44;99958.63;;;8.14;63.28
73594;BME280;64760;53.404;23.498;2024-02-14T02:46:52;99952.56;;;8.28;63.62
73594;BME280;64760;53.404;23.498;2024-02-14T02:49:44;99960.53;;;8.36;62.64
73594;BME280;64760;53.404;23.498;2024-02-14T02:52:26;99964.84;;;8.37;62.64
73594;BME280;64760;53.404;23.498;2024-02-14T02:55:14;99965.75;;;8.29;62.65
73594;BME280;64760;53.404;23.498;2024-02-14T02:57:47;99963.03;;;8.37;62.90
73594;BME280;64760;53.404;23.498;2024-02-14T03:00:14;99971.00;;;8.07;63.76
73594;BME280;64760;53.404;23.498;2024-02-14T03:02:48;99964.47;;;8.09;63.92
73594;BME280;64760;53.404;23.498;2024-02-14T03:05:25;99967.53;;;8.37;63.04
73594;BME280;64760;53.404;23.498;2024-02-14T03:08:11;99945.00;;;8.62;61.69
73594;BME280;64760;53.404;23.498;2024-02-14T03:11:05;99959.47;;;8.90;61.62
73594;BME280;64760;53.404;23.498;2024-02-14T03:13:53;99959.38;;;8.76;61.38
73594;BME280;64760;53.404;23.498;2024-02-14T03:16:40;99967.78;;;8.95;60.84
73594;BME280;64760;53.404;23.498;2024-02-14T03:19:09;99970.22;;;8.82;61.15
73594;BME280;64760;53.404;23.498;2024-02-14T03:21:37;99952.81;;;8.86;61.27
73594;BME280;64760;53.404;23.498;2024-02-14T03:24:04;99956.19;;;8.80;61.53
73594;BME280;64760;53.404;23.498;2024-02-14T03:26:32;99959.91;;;8.79;61.77
73594;BME280;64760;53.404;23.498;2024-02-14T03:29:01;99953.50;;;8.80;61.98
73594;BME280;64760;53.404;23.498;2024-02-14T03:31:27;99955.97;;;8.67;62.29
73594;BME280;64760;53.404;23.498;2024-02-14T03:33:53;99964.94;;;8.74;62.34
73594;BME280;64760;53.404;23.498;2024-02-14T03:36:20;99960.28;;;8.68;62.31
73594;BME280;64760;53.404;23.498;2024-02-14T03:38:46;99967.31;;;8.69;62.38
73594;BME280;64760;53.404;23.498;2024-02-14T03:41:13;99964.28;;;8.72;62.37
73594;BME280;64760;53.404;23.498;2024-02-14T03:43:39;99962.69;;;8.63;62.65
73594;BME280;64760;53.404;23.498;2024-02-14T03:46:05;99963.53;;;8.64;62.86
73594;BME280;64760;53.404;23.498;2024-02-14T03:48:32;99958.72;;;8.59;62.75
73594;BME280;64760;53.404;23.498;2024-02-14T03:50:58;99962.38;;;8.58;62.91
73594;BME280;64760;53.404;23.498;2024-02-14T03:53:25;99960.13;;;8.47;63.27
73594;BME280;64760;53.404;23.498;2024-02-14T03:55:52;99966.88;;;8.35;63.08
73594;BME280;64760;53.404;23.498;2024-02-14T03:58:19;99974.06;;;8.34;63.43
73594;BME280;64760;53.404;23.498;2024-02-14T04:00:50;99967.94;;;8.18;63.75
73594;BME280;64760;53.404;23.498;2024-02-14T04:03:16;99975.56;;;7.98;63.20
73594;BME280;64760;53.404;23.498;2024-02-14T04:05:44;99974.56;;;7.60;64.45
73594;BME280;64760;53.404;23.498;2024-02-14T04:08:11;99979.25;;;7.42;65.14
73594;BME280;64760;53.404;23.498;2024-02-14T04:10:38;99976.94;;;7.39;66.55
73594;BME280;64760;53.404;23.498;2024-02-14T04:13:04;99974.88;;;7.57;66.61
73594;BME280;64760;53.404;23.498;2024-02-14T04:15:32;99982.56;;;7.60;66.65
73594;BME280;64760;53.404;23.498;2024-02-14T04:18:04;99987.50;;;7.71;66.34
73594;BME280;64760;53.404;23.498;2024-02-14T04:20:32;99985.81;;;7.78;66.62
73594;BME280;64760;53.404;23.498;2024-02-14T04:22:58;99993.34;;;7.75;66.66
73594;BME280;64760;53.404;23.498;2024-02-14T04:25:25;99994.81;;;7.77;67.05
73594;BME280;64760;53.404;23.498;2024-02-14T04:27:51;100002.16;;;7.83;66.91
73594;BME280;64760;53.404;23.498;2024-02-14T04:30:18;100006.31;;;7.86;66.59
73594;BME280;64760;53.404;23.498;2024-02-14T04:33:03;100012.28;;;7.96;66.36
73594;BME280;64760;53.404;23.498;2024-02-14T04:35:31;100003.09;;;7.98;66.41
73594;BME280;64760;53.404;23.498;2024-02-14T04:37:57;100004.41;;;8.02;66.17
73594;BME280;64760;53.404;23.498;2024-02-14T04:40:23;100008.75;;;8.03;66.38
73594;BME280;64760;53.404;23.498;2024-02-14T04:42:50;100016.41;;;8.07;66.27
73594;BME280;64760;53.404;23.498;2024-02-14T04:45:16;100024.88;;;8.10;66.14
73594;BME280;64760;53.404;23.498;2024-02-14T04:47:53;100031.94;;;8.03;65.89
73594;BME280;64760;53.404;23.498;2024-02-14T04:50:19;100030.00;;;7.81;66.60
73594;BME280;64760;53.404;23.498;2024-02-14T04:52:46;100027.22;;;7.58;67.06
73594;BME280;64760;53.404;23.498;2024-02-14T04:55:12;100030.69;;;7.75;66.97
73594;BME280;64760;53.404;23.498;2024-02-14T04:57:39;100035.50;;;7.87;66.83
73594;BME280;64760;53.404;23.498;2024-02-14T05:00:06;100029.63;;;8.00;66.00
73594;BME280;64760;53.404;23.498;2024-02-14T05:02:37;100034.16;;;7.91;66.28
73594;BME280;64760;53.404;23.498;2024-02-14T05:05:04;100039.66;;;7.90;65.83
73594;BME280;64760;53.404;23.498;2024-02-14T05:07:33;100035.38;;;7.65;66.96
73594;BME280;64760;53.404;23.498;2024-02-14T05:10:00;100046.28;;;7.23;68.23
73594;BME280;64760;53.404;23.498;2024-02-14T05:12:27;100036.94;;;7.35;68.73
73594;BME280;64760;53.404;23.498;2024-02-14T05:14:54;100037.28;;;7.24;69.04
73594;BME280;64760;53.404;23.498;2024-02-14T05:20:55;100039.75;;;7.41;68.49
73594;BME280;64760;53.404;23.498;2024-02-14T05:23:21;100031.59;;;7.27;68.22
73594;BME280;64760;53.404;23.498;2024-02-14T05:25:52;100042.94;;;7.21;68.96
73594;BME280;64760;53.404;23.498;2024-02-14T05:28:19;100042.97;;;7.04;70.30
73594;BME280;64760;53.404;23.498;2024-02-14T05:30:48;100052.09;;;7.18;69.24
73594;BME280;64760;53.404;23.498;2024-02-14T05:33:24;100054.94;;;6.92;70.69
73594;BME280;64760;53.404;23.498;2024-02-14T05:35:51;100054.59;;;6.87;70.68
73594;BME280;64760;53.404;23.498;2024-02-14T05:38:18;100043.09;;;6.87;70.53
73594;BME280;64760;53.404;23.498;2024-02-14T05:40:48;100047.28;;;7.05;69.54
73594;BME280;64760;53.404;23.498;2024-02-14T05:43:15;100050.94;;;6.88;70.97
73594;BME280;64760;53.404;23.498;2024-02-14T05:45:42;100051.25;;;6.77;70.91
73594;BME280;64760;53.404;23.498;2024-02-14T05:48:08;100047.25;;;6.81;70.27
73594;BME280;64760;53.404;23.498;2024-02-14T05:50:35;100055.59;;;6.86;70.05
73594;BME280;64760;53.404;23.498;2024-02-14T05:53:01;100061.91;;;6.77;69.24
73594;BME280;64760;53.404;23.498;2024-02-14T05:55:28;100048.53;;;6.61;69.46
73594;BME280;64760;53.404;23.498;2024-02-14T05:57:56;100053.66;;;6.38;70.02
73594;BME280;64760;53.404;23.498;2024-02-14T06:00:25;100047.75;;;6.19;70.78
73594;BME280;64760;53.404;23.498;2024-02-14T06:02:51;100060.53;;;6.07;72.07
73594;BME280;64760;53.404;23.498;2024-02-14T06:05:18;100057.03;;;6.06;72.32
73594;BME280;64760;53.404;23.498;2024-02-14T06:07:44;100065.03;;;6.14;72.61
73594;BME280;64760;53.404;23.498;2024-02-14T06:10:13;100058.09;;;6.22;72.66
73594;BME280;64760;53.404;23.498;2024-02-14T06:12:39;100062.91;;;6.18;72.35
73594;BME280;64760;53.404;23.498;2024-02-14T06:15:07;100073.53;;;6.18;71.84
73594;BME280;64760;53.404;23.498;2024-02-14T06:17:34;100068.19;;;6.10;71.32
73594;BME280;64760;53.404;23.498;2024-02-14T06:20:01;100074.78;;;5.98;71.22
73594;BME280;64760;53.404;23.498;2024-02-14T06:22:33;100077.09;;;5.93;70.62
73594;BME280;64760;53.404;23.498;2024-02-14T06:25:00;100087.19;;;5.89;72.13
73594;BME280;64760;53.404;23.498;2024-02-14T06:27:26;100080.09;;;5.98;72.54
73594;BME280;64760;53.404;23.498;2024-02-14T06:29:54;100086.00;;;6.18;72.59
73594;BME280;64760;53.404;23.498;2024-02-14T06:32:20;100095.44;;;6.46;72.05
73594;BME280;64760;53.404;23.498;2024-02-14T06:34:47;100093.81;;;6.61;72.37
73594;BME280;64760;53.404;23.498;2024-02-14T06:37:13;100101.38;;;6.82;72.07
73594;BME280;64760;53.404;23.498;2024-02-14T06:39:39;100097.41;;;7.02;71.97
73594;BME280;64760;53.404;23.498;2024-02-14T06:42:05;100098.25;;;7.19;71.87
73594;BME280;64760;53.404;23.498;2024-02-14T06:44:32;100094.59;;;7.28;72.25
73594;BME280;64760;53.404;23.498;2024-02-14T06:46:58;100099.44;;;7.32;72.11
73594;BME280;64760;53.404;23.498;2024-02-14T06:49:24;100098.59;;;7.40;71.41
73594;BME280;64760;53.404;23.498;2024-02-14T06:51:52;100095.75;;;7.66;70.44
73594;BME280;64760;53.404;23.498;2024-02-14T06:54:18;100092.59;;;7.54;70.13
73594;BME280;64760;53.404;23.498;2024-02-14T06:56:45;100098.59;;;7.40;69.55
73594;BME280;64760;53.404;23.498;2024-02-14T06:59:11;100089.94;;;7.30;69.47
73594;BME280;64760;53.404;23.498;2024-02-14T07:01:37;100087.44;;;7.12;69.98
73594;BME280;64760;53.404;23.498;2024-02-14T07:04:05;100086.09;;;7.16;69.66
73594;BME280;64760;53.404;23.498;2024-02-14T07:06:31;100088.09;;;7.06;69.81
73594;BME280;64760;53.404;23.498;2024-02-14T07:08:57;100078.41;;;6.97;70.23
73594;BME280;64760;53.404;23.498;2024-02-14T07:11:23;100083.22;;;6.93;70.05
73594;BME280;64760;53.404;23.498;2024-02-14T07:13:50;100080.91;;;6.90;70.60
73594;BME280;64760;53.404;23.498;2024-02-14T07:16:16;100078.25;;;6.90;70.72
73594;BME280;64760;53.404;23.498;2024-02-14T07:18:45;100080.91;;;6.98;70.61
73594;BME280;64760;53.404;23.498;2024-02-14T07:21:11;100076.41;;;6.91;71.30
73594;BME280;64760;53.404;23.498;2024-02-14T07:23:37;100077.25;;;6.99;71.53
73594;BME280;64760;53.404;23.498;2024-02-14T07:26:04;100079.72;;;6.93;72.26
73594;BME280;64760;53.404;23.498;2024-02-14T07:28:31;100078.09;;;7.08;73.94
73594;BME280;64760;53.404;23.498;2024-02-14T07:30:58;100083.94;;;7.36;72.91
73594;BME280;64760;53.404;23.498;2024-02-14T07:33:24;100087.59;;;7.27;74.04
73594;BME280;64760;53.404;23.498;2024-02-14T07:35:50;100093.78;;;7.43;74.15
73594;BME280;64760;53.404;23.498;2024-02-14T07:38:17;100094.25;;;7.71;72.62
73594;BME280;64760;53.404;23.498;2024-02-14T07:40:44;100088.41;;;7.68;73.76
73594;BME280;64760;53.404;23.498;2024-02-14T07:43:21;100091.41;;;7.56;73.12
73594;BME280;64760;53.404;23.498;2024-02-14T07:45:48;100097.75;;;7.72;72.87
73594;BME280;64760;53.404;23.498;2024-02-14T07:48:14;100093.06;;;7.74;72.03
73594;BME280;64760;53.404;23.498;2024-02-14T07:50:41;100093.06;;;8.37;69.91
73594;BME280;64760;53.404;23.498;2024-02-14T07:53:07;100089.91;;;8.64;68.61
73594;BME280;64760;53.404;23.498;2024-02-14T07:55:33;100086.69;;;8.46;68.55
73594;BME280;64760;53.404;23.498;2024-02-14T07:58:00;100087.50;;;7.99;70.52
73594;BME280;64760;53.404;23.498;2024-02-14T08:00:26;100082.97;;;8.08;70.25
73594;BME280;64760;53.404;23.498;2024-02-14T08:02:52;100086.25;;;8.34;69.70
73594;BME280;64760;53.404;23.498;2024-02-14T08:05:18;100096.00;;;8.50;69.59
73594;BME280;64760;53.404;23.498;2024-02-14T08:07:45;100097.84;;;8.80;67.41
73594;BME280;64760;53.404;23.498;2024-02-14T08:10:14;100104.47;;;8.62;68.25
73594;BME280;64760;53.404;23.498;2024-02-14T08:12:41;100107.97;;;8.62;67.49
73594;BME280;64760;53.404;23.498;2024-02-14T08:15:07;100103.47;;;8.63;67.95
73594;BME280;64760;53.404;23.498;2024-02-14T08:17:34;100101.91;;;8.37;68.14
73594;BME280;64760;53.404;23.498;2024-02-14T08:20:02;100108.75;;;9.02;66.18
73594;BME280;64760;53.404;23.498;2024-02-14T08:22:31;100111.22;;;8.49;68.16
73594;BME280;64760;53.404;23.498;2024-02-14T08:24:58;100104.50;;;8.84;67.24
73594;BME280;64760;53.404;23.498;2024-02-14T08:27:25;100111.69;;;9.15;66.21
73594;BME280;64760;53.404;23.498;2024-02-14T08:29:57;100111.97;;;8.66;66.98
73594;BME280;64760;53.404;23.498;2024-02-14T08:32:23;100121.06;;;9.11;65.53
73594;BME280;64760;53.404;23.498;2024-02-14T08:34:50;100114.16;;;9.16;65.70
73594;BME280;64760;53.404;23.498;2024-02-14T08:37:16;100109.56;;;9.48;64.41
73594;BME280;64760;53.404;23.498;2024-02-14T08:39:44;100104.03;;;9.49;64.23
73594;BME280;64760;53.404;23.498;2024-02-14T08:42:11;100110.72;;;9.68;63.45
73594;BME280;64760;53.404;23.498;2024-02-14T08:44:37;100105.91;;;10.15;62.74
73594;BME280;64760;53.404;23.498;2024-02-14T08:47:04;100108.09;;;9.97;62.32
73594;BME280;64760;53.404;23.498;2024-02-14T08:49:31;100105.16;;;10.36;60.92
73594;BME280;64760;53.404;23.498;2024-02-14T08:51:58;100105.97;;;9.93;61.69
73594;BME280;64760;53.404;23.498;2024-02-14T08:54:24;100111.78;;;9.81;63.24
73594;BME280;64760;53.404;23.498;2024-02-14T08:56:54;100110.91;;;10.18;61.68
73594;BME280;64760;53.404;23.498;2024-02-14T08:59:24;100125.41;;;10.24;60.77
73594;BME280;64760;53.404;23.498;2024-02-14T09:01:51;100119.13;;;10.46;60.62
73594;BME280;64760;53.404;23.498;2024-02-14T09:04:17;100114.31;;;9.60;63.62
73594;BME280;64760;53.404;23.498;2024-02-14T09:06:43;100111.47;;;9.62;64.06
73594;BME280;64760;53.404;23.498;2024-02-14T09:09:10;100111.75;;;9.44;65.07
73594;BME280;64760;53.404;23.498;2024-02-14T09:11:37;100115.19;;;9.90;63.98
73594;BME280;64760;53.404;23.498;2024-02-14T09:14:03;100124.38;;;9.58;64.01
73594;BME280;64760;53.404;23.498;2024-02-14T09:16:33;100121.31;;;9.99;63.67
73594;BME280;64760;53.404;23.498;2024-02-14T09:18:59;100115.50;;;10.54;63.42
73594;BME280;64760;53.404;23.498;2024-02-14T09:21:27;100112.50;;;10.78;61.84
73594;BME280;64760;53.404;23.498;2024-02-14T09:23:54;100106.59;;;10.82;61.09
73594;BME280;64760;53.404;23.498;2024-02-14T09:26:21;100104.06;;;11.38;59.67
73594;BME280;64760;53.404;23.498;2024-02-14T09:28:47;100112.28;;;11.15;59.95
73594;BME280;64760;53.404;23.498;2024-02-14T09:31:21;100106.94;;;10.79;60.11
73594;BME280;64760;53.404;23.498;2024-02-14T09:33:48;100114.28;;;11.49;58.91
73594;BME280;64760;53.404;23.498;2024-02-14T09:36:15;100114.31;;;11.35;59.23
73594;BME280;64760;53.404;23.498;2024-02-14T09:38:42;100116.69;;;11.44;58.45
73594;BME280;64760;53.404;23.498;2024-02-14T09:41:15;100113.09;;;11.80;57.69
73594;BME280;64760;53.404;23.498;2024-02-14T09:43:45;100112.72;;;11.83;57.74
73594;BME280;64760;53.404;23.498;2024-02-14T09:46:13;100120.63;;;11.91;57.80
73594;BME280;64760;53.404;23.498;2024-02-14T09:48:44;100120.63;;;11.91;57.05
73594;BME280;64760;53.404;23.498;2024-02-14T09:51:12;100123.31;;;12.59;55.69
73594;BME280;64760;53.404;23.498;2024-02-14T09:53:39;100124.66;;;12.42;55.05
73594;BME280;64760;53.404;23.498;2024-02-14T09:56:10;100123.41;;;11.76;56.70
73594;BME280;64760;53.404;23.498;2024-02-14T09:58:37;100128.25;;;11.87;56.22
73594;BME280;64760;53.404;23.498;2024-02-14T10:01:04;100127.34;;;11.59;56.90
73594;BME280;64760;53.404;23.498;2024-02-14T10:03:35;100125.84;;;11.28;57.49
73594;BME280;64760;53.404;23.498;2024-02-14T10:06:03;100124.63;;;11.73;56.81
73594;BME280;64760;53.404;23.498;2024-02-14T10:08:30;100126.03;;;11.69;56.58
73594;BME280;64760;53.404;23.498;2024-02-14T10:10:57;100121.75;;;11.32;57.86
73594;BME280;64760;53.404;23.498;2024-02-14T10:13:27;100114.41;;;11.62;57.75
73594;BME280;64760;53.404;23.498;2024-02-14T10:15:56;100123.75;;;11.45;57.13
73594;BME280;64760;53.404;23.498;2024-02-14T10:18:23;100125.94;;;10.63;59.69
73594;BME280;64760;53.404;23.498;2024-02-14T10:20:55;100128.19;;;11.59;58.15
73594;BME280;64760;53.404;23.498;2024-02-14T10:23:27;100123.53;;;11.47;57.98
73594;BME280;64760;53.404;23.498;2024-02-14T10:25:54;100125.28;;;11.54;57.42
73594;BME280;64760;53.404;23.498;2024-02-14T10:28:22;100119.41;;;12.28;55.78
73594;BME280;64760;53.404;23.498;2024-02-14T10:30:54;100124.31;;;11.41;55.95
73594;BME280;64760;53.404;23.498;2024-02-14T10:33:21;100129.75;;;11.26;56.46
73594;BME280;64760;53.404;23.498;2024-02-14T10:35:49;100126.69;;;11.50;55.92
73594;BME280;64760;53.404;23.498;2024-02-14T10:38:17;100123.69;;;11.17;56.58
73594;BME280;64760;53.404;23.498;2024-02-14T10:40:47;100124.88;;;10.94;58.51
73594;BME280;64760;53.404;23.498;2024-02-14T10:43:13;100116.03;;;10.64;59.26
73594;BME280;64760;53.404;23.498;2024-02-14T10:45:40;100122.66;;;11.18;57.46
73594;BME280;64760;53.404;23.498;2024-02-14T10:48:11;100119.03;;;11.26;56.82
73594;BME280;64760;53.404;23.498;2024-02-14T10:50:40;100117.97;;;11.48;55.36
73594;BME280;64760;53.404;23.498;2024-02-14T10:53:13;100116.50;;;11.95;55.22
73594;BME280;64760;53.404;23.498;2024-02-14T10:55:46;100117.34;;;11.25;55.97
73594;BME280;64760;53.404;23.498;2024-02-14T10:58:18;100128.72;;;10.91;56.57
73594;BME280;64760;53.404;23.498;2024-02-14T11:04:41;100119.44;;;11.08;56.40
73594;BME280;64760;53.404;23.498;2024-02-14T11:07:10;100125.03;;;10.42;57.85
73594;BME280;64760;53.404;23.498;2024-02-14T11:09:37;100126.84;;;10.12;58.92
73594;BME280;64760;53.404;23.498;2024-02-14T11:12:08;100117.44;;;10.60;57.42
73594;BME280;64760;53.404;23.498;2024-02-14T11:14:50;100117.78;;;10.71;57.88
73594;BME280;64760;53.404;23.498;2024-02-14T11:17:20;100119.88;;;10.55;57.31
73594;BME280;64760;53.404;23.498;2024-02-14T11:19:52;100112.75;;;10.98;56.83
73594;BME280;64760;53.404;23.498;2024-02-14T11:22:20;100105.06;;;10.44;57.21
73594;BME280;64760;53.404;23.498;2024-02-14T11:24:47;100099.66;;;10.73;56.54
73594;BME280;64760;53.404;23.498;2024-02-14T11:27:18;100107.06;;;10.71;56.21
73594;BME280;64760;53.404;23.498;2024-02-14T11:29:53;100113.53;;;11.34;54.24
73594;BME280;64760;53.404;23.498;2024-02-14T11:32:21;100104.91;;;10.81;55.24
73594;BME280;64760;53.404;23.498;2024-02-14T11:34:57;100112.56;;;10.49;55.51
73594;BME280;64760;53.404;23.498;2024-02-14T11:37:28;100100.66;;;10.22;56.81
73594;BME280;64760;53.404;23.498;2024-02-14T11:39:59;100111.72;;;11.20;54.54
73594;BME280;64760;53.404;23.498;2024-02-14T11:42:28;100100.47;;;10.38;55.60
73594;BME280;64760;53.404;23.498;2024-02-14T11:44:54;100114.34;;;10.77;54.58
73594;BME280;64760;53.404;23.498;2024-02-14T11:47:22;100107.00;;;10.35;55.49
73594;BME280;64760;53.404;23.498;2024-02-14T11:49:49;100101.69;;;10.71;55.43
73594;BME280;64760;53.404;23.498;2024-02-14T11:52:15;100097.94;;;10.87;54.55
73594;BME280;64760;53.404;23.498;2024-02-14T11:54:46;100098.63;;;11.10;54.56
73594;BME280;64760;53.404;23.498;2024-02-14T11:57:18;100109.66;;;11.01;54.50
73594;BME280;64760;53.404;23.498;2024-02-14T11:59:45;100103.50;;;11.21;54.73
73594;BME280;64760;53.404;23.498;2024-02-14T12:02:14;100106.88;;;10.73;55.94
73594;BME280;64760;53.404;23.498;2024-02-14T12:04:42;100095.69;;;11.05;54.28
73594;BME280;64760;53.404;23.498;2024-02-14T12:07:09;100101.63;;;11.01;53.64
73594;BME280;64760;53.404;23.498;2024-02-14T12:09:35;100101.16;;;10.61;54.85
73594;BME280;64760;53.404;23.498;2024-02-14T12:12:02;100105.53;;;10.83;53.92
73594;BME280;64760;53.404;23.498;2024-02-14T12:14:28;100107.56;;;11.17;52.76
73594;BME280;64760;53.404;23.498;2024-02-14T12:16:59;100105.81;;;10.53;54.92
73594;BME280;64760;53.404;23.498;2024-02-14T12:19:28;100108.50;;;11.31;53.38
73594;BME280;64760;53.404;23.498;2024-02-14T12:21:55;100110.66;;;11.14;53.94
73594;BME280;64760;53.404;23.498;2024-02-14T12:24:27;100115.41;;;11.61;53.13
73594;BME280;64760;53.404;23.498;2024-02-14T12:26:54;100109.41;;;12.15;51.29
73594;BME280;64760;53.404;23.498;2024-02-14T12:29:23;100110.00;;;12.10;51.05
73594;BME280;64760;53.404;23.498;2024-02-14T12:31:50;100107.75;;;11.16;52.29
73594;BME280;64760;53.404;23.498;2024-02-14T12:34:16;100121.69;;;11.26;52.60
73594;BME280;64760;53.404;23.498;2024-02-14T12:36:44;100110.56;;;10.87;53.58
73594;BME280;64760;53.404;23.498;2024-02-14T12:39:11;100114.84;;;11.23;53.38
73594;BME280;64760;53.404;23.498;2024-02-14T12:41:38;100113.31;;;11.36;51.74
73594;BME280;64760;53.404;23.498;2024-02-14T12:44:06;100108.88;;;11.07;51.69
73594;BME280;64760;53.404;23.498;2024-02-14T12:46:33;100117.97;;;11.27;51.51
73594;BME280;64760;53.404;23.498;2024-02-14T12:48:59;100104.94;;;11.24;51.94
73594;BME280;64760;53.404;23.498;2024-02-14T12:51:27;100109.66;;;11.64;51.51
73594;BME280;64760;53.404;23.498;2024-02-14T12:53:54;100113.63;;;11.47;52.62
73594;BME280;64760;53.404;23.498;2024-02-14T12:56:21;100104.03;;;11.81;51.07
73594;BME280;64760;53.404;23.498;2024-02-14T12:58:47;100107.47;;;12.02;51.20
73594;BME280;64760;53.404;23.498;2024-02-14T13:01:14;100115.59;;;11.39;52.00
73594;BME280;64760;53.404;23.498;2024-02-14T13:03:41;100108.06;;;11.70;52.30
73594;BME280;64760;53.404;23.498;2024-02-14T13:06:07;100113.31;;;12.06;51.49